createdAt,value
2023-01-06T00:01:20.947Z,4.40
2023-01-06T00:03:49.318Z,3.13
2023-01-06T00:06:18.050Z,3.53
2023-01-06T00:08:45.027Z,3.40
2023-01-06T00:11:13.169Z,4.53
2023-01-06T00:13:40.929Z,4.15
2023-01-06T00:16:09.715Z,5.00
2023-01-06T00:18:37.428Z,4.60
2023-01-06T00:21:05.230Z,3.75
2023-01-06T00:23:34.203Z,3.53
2023-01-06T00:30:56.550Z,3.15
2023-01-06T00:33:23.622Z,4.30
2023-01-06T00:35:51.169Z,4.00
2023-01-06T00:38:19.754Z,4.57
2023-01-06T00:40:47.917Z,3.72
2023-01-06T00:43:14.657Z,4.22
2023-01-06T00:45:41.388Z,3.65
2023-01-06T00:48:08.152Z,3.88
2023-01-06T00:50:34.863Z,2.92
2023-01-06T00:53:01.693Z,3.40
2023-01-06T00:55:28.804Z,4.47
2023-01-06T00:57:57.172Z,3.80
2023-01-06T01:00:23.901Z,3.65
2023-01-06T01:02:50.708Z,3.03
2023-01-06T01:05:17.580Z,3.45
2023-01-06T01:07:44.723Z,3.35
2023-01-06T01:10:11.863Z,3.58
2023-01-06T01:12:38.635Z,3.90
2023-01-06T01:15:08.007Z,3.75
2023-01-06T01:17:34.764Z,3.60
2023-01-06T01:20:01.522Z,3.28
2023-01-06T01:22:29.832Z,3.88
2023-01-06T01:24:56.800Z,3.05
2023-01-06T01:27:23.663Z,3.90
2023-01-06T01:29:50.434Z,3.45
2023-01-06T01:32:18.517Z,3.92
2023-01-06T01:34:45.259Z,2.90
2023-01-06T01:37:12.043Z,3.72
2023-01-06T01:39:38.731Z,3.60
2023-01-06T01:42:13.007Z,3.00
2023-01-06T01:44:58.658Z,3.40
2023-01-06T01:47:42.025Z,2.42
2023-01-06T01:50:15.862Z,1.88
2023-01-06T01:52:44.663Z,2.50
2023-01-06T01:55:12.398Z,2.50
2023-01-06T01:57:45.144Z,2.20
2023-01-06T02:00:12.734Z,2.47
2023-01-06T02:02:42.282Z,2.85
2023-01-06T02:05:11.410Z,2.25
2023-01-06T02:10:10.943Z,1.88
2023-01-06T02:12:38.435Z,3.08
2023-01-06T02:15:15.554Z,1.33
2023-01-06T02:18:07.462Z,1.77
2023-01-06T02:20:50.151Z,2.10
2023-01-06T02:24:00.633Z,2.10
2023-01-06T02:27:05.169Z,1.70
2023-01-06T02:30:00.497Z,2.08
2023-01-06T02:32:53.368Z,1.80
2023-01-06T02:35:40.000Z,2.08
2023-01-06T02:38:18.327Z,2.58
2023-01-06T02:41:05.117Z,2.88
2023-01-06T02:43:44.411Z,1.95
2023-01-06T02:46:22.941Z,2.50
2023-01-06T02:48:59.540Z,2.72
2023-01-06T02:51:33.620Z,1.40
2023-01-06T02:54:08.645Z,1.50
2023-01-06T02:56:40.469Z,3.00
2023-01-06T02:59:14.452Z,2.22
2023-01-06T03:01:44.386Z,1.52
2023-01-06T03:04:17.292Z,1.75
2023-01-06T03:06:48.185Z,2.25
2023-01-06T03:09:19.393Z,1.42
2023-01-06T03:11:50.734Z,1.40
2023-01-06T03:14:22.502Z,1.45
2023-01-06T03:16:49.518Z,1.90
2023-01-06T03:19:17.825Z,1.50
2023-01-06T03:21:47.509Z,1.63
2023-01-06T03:24:15.365Z,1.23
2023-01-06T03:26:44.187Z,1.58
2023-01-06T03:29:13.281Z,1.17
2023-01-06T03:31:48.265Z,1.63
2023-01-06T03:34:22.548Z,1.30
2023-01-06T03:36:58.665Z,1.33
2023-01-06T03:39:33.827Z,1.38
2023-01-06T03:42:07.268Z,1.10
2023-01-06T03:44:40.844Z,2.00
2023-01-06T03:47:12.743Z,1.20
2023-01-06T03:49:49.005Z,1.85
2023-01-06T03:52:23.749Z,1.42
2023-01-06T03:54:56.406Z,1.45
2023-01-06T03:57:27.035Z,1.40
2023-01-06T03:59:56.990Z,1.20
2023-01-06T04:02:24.711Z,1.30
2023-01-06T04:05:09.850Z,1.40
2023-01-06T04:07:38.470Z,2.28
2023-01-06T04:10:06.382Z,2.53
2023-01-06T04:12:33.137Z,1.20
2023-01-06T04:14:59.852Z,1.30
2023-01-06T04:17:26.605Z,1.88
2023-01-06T04:19:53.317Z,1.20
2023-01-06T04:22:21.409Z,1.52
2023-01-06T04:24:48.160Z,1.10
2023-01-06T04:27:14.905Z,1.40
2023-01-06T04:29:41.706Z,2.28
2023-01-06T04:32:08.609Z,1.05
2023-01-06T04:34:35.432Z,2.17
2023-01-06T04:37:02.270Z,1.27
2023-01-06T04:39:30.375Z,1.38
2023-01-06T04:41:57.169Z,1.20
2023-01-06T04:44:23.928Z,2.10
2023-01-06T04:46:50.687Z,1.05
2023-01-06T04:49:17.440Z,1.20
2023-01-06T04:51:45.194Z,1.05
2023-01-06T04:54:12.522Z,1.10
2023-01-06T04:56:40.764Z,1.30
2023-01-06T04:59:07.459Z,1.17
2023-01-06T05:01:34.328Z,1.30
2023-01-06T05:04:01.240Z,1.20
2023-01-06T05:06:28.081Z,1.20
2023-01-06T05:08:54.821Z,1.10
2023-01-06T05:11:23.283Z,1.10
2023-01-06T05:13:51.865Z,0.88
2023-01-06T05:16:21.003Z,1.83
2023-01-06T05:18:47.826Z,1.10
2023-01-06T05:21:14.781Z,1.35
2023-01-06T05:23:41.614Z,1.10
2023-01-06T05:26:13.944Z,0.70
2023-01-06T05:28:40.704Z,1.00
2023-01-06T05:31:10.661Z,1.10
2023-01-06T05:33:37.676Z,0.95
2023-01-06T05:36:07.388Z,1.92
2023-01-06T05:38:34.518Z,1.17
2023-01-06T05:41:02.058Z,1.33
2023-01-06T05:43:29.176Z,1.38
2023-01-06T05:45:56.089Z,1.10
2023-01-06T05:48:26.477Z,1.75
2023-01-06T05:50:59.932Z,1.73
2023-01-06T05:53:26.730Z,1.10
2023-01-06T05:55:58.441Z,1.10
2023-01-06T05:58:25.172Z,1.02
2023-01-06T06:00:51.961Z,1.80
2023-01-06T06:03:18.680Z,1.40
2023-01-06T06:05:46.884Z,1.10
2023-01-06T06:08:13.930Z,1.98
2023-01-06T06:10:40.684Z,1.30
2023-01-06T06:13:07.488Z,1.23
2023-01-06T06:15:34.237Z,1.77
2023-01-06T06:18:02.130Z,0.95
2023-01-06T06:20:29.060Z,1.40
2023-01-06T06:22:57.352Z,1.50
2023-01-06T06:25:26.383Z,1.00
2023-01-06T06:27:57.683Z,1.52
2023-01-06T06:30:24.722Z,1.80
2023-01-06T06:32:51.479Z,1.15
2023-01-06T06:35:18.236Z,1.80
2023-01-06T06:37:45.028Z,2.03
2023-01-06T06:40:13.408Z,1.23
2023-01-06T06:42:40.116Z,1.38
2023-01-06T06:45:07.831Z,1.38
2023-01-06T06:47:34.568Z,1.33
2023-01-06T06:50:01.283Z,1.50
2023-01-06T06:52:29.882Z,1.15
2023-01-06T06:54:56.611Z,1.60
2023-01-06T06:57:24.764Z,1.20
2023-01-06T06:59:51.499Z,1.40
2023-01-06T07:02:18.363Z,1.95
2023-01-06T07:04:45.281Z,1.30
2023-01-06T07:07:12.108Z,2.28
2023-01-06T07:09:38.888Z,1.30
2023-01-06T07:12:06.286Z,1.65
2023-01-06T07:14:34.460Z,2.20
2023-01-06T07:17:01.574Z,2.63
2023-01-06T07:19:28.368Z,1.70
2023-01-06T07:21:55.125Z,2.38
2023-01-06T07:24:23.171Z,1.75
2023-01-06T07:26:50.275Z,2.60
2023-01-06T07:29:17.024Z,4.03
2023-01-06T07:31:45.127Z,2.22
2023-01-06T07:34:11.820Z,3.60
2023-01-06T07:36:40.645Z,2.20
2023-01-06T07:39:08.573Z,3.35
2023-01-06T07:41:35.289Z,2.85
2023-01-06T07:44:02.059Z,2.83
2023-01-06T07:46:28.867Z,2.60
2023-01-06T07:48:57.119Z,4.00
2023-01-06T07:51:23.920Z,3.90
2023-01-06T07:53:50.691Z,4.57
2023-01-06T07:56:17.419Z,3.88
2023-01-06T07:58:44.149Z,5.28
2023-01-06T08:01:12.353Z,2.85
2023-01-06T08:03:39.341Z,5.45
2023-01-06T08:06:09.536Z,3.85
2023-01-06T08:08:36.942Z,4.57
2023-01-06T08:11:04.102Z,4.88
2023-01-06T08:13:31.014Z,5.15
2023-01-06T08:15:59.348Z,6.43
2023-01-06T08:18:27.882Z,6.38
2023-01-06T08:20:59.878Z,6.90
2023-01-06T08:23:28.026Z,6.63
2023-01-06T08:26:01.900Z,6.57
2023-01-06T08:28:29.668Z,6.88
2023-01-06T08:30:56.706Z,4.22
2023-01-06T08:33:23.597Z,5.43
2023-01-06T08:35:50.384Z,5.38
2023-01-06T08:38:17.096Z,4.78
2023-01-06T08:40:45.772Z,5.43
2023-01-06T08:43:12.777Z,5.10
2023-01-06T08:45:39.844Z,4.97
2023-01-06T08:48:06.582Z,4.65
2023-01-06T08:50:33.284Z,4.45
2023-01-06T08:53:00.907Z,4.78
2023-01-06T08:55:27.613Z,4.43
2023-01-06T08:57:55.675Z,4.30
2023-01-06T09:00:22.622Z,4.23
2023-01-06T09:02:49.358Z,4.00
2023-01-06T09:05:16.321Z,4.53
2023-01-06T09:07:43.092Z,4.13
2023-01-06T09:10:09.925Z,4.07
2023-01-06T09:12:36.978Z,3.90
2023-01-06T09:15:06.284Z,4.93
2023-01-06T09:17:33.036Z,3.75
2023-01-06T09:19:59.857Z,4.80
2023-01-06T09:22:26.717Z,2.97
2023-01-06T09:24:53.719Z,2.30
2023-01-06T09:27:22.720Z,3.50
2023-01-06T09:29:49.636Z,2.60
2023-01-06T09:32:17.990Z,2.88
2023-01-06T09:34:44.737Z,3.60
2023-01-06T09:37:11.765Z,2.45
2023-01-06T09:39:40.560Z,3.22
2023-01-06T09:42:36.033Z,1.48
2023-01-06T09:45:06.092Z,1.70
2023-01-06T09:47:37.097Z,1.80
2023-01-06T09:50:09.888Z,1.90
2023-01-06T09:52:41.724Z,1.55
2023-01-06T09:55:16.752Z,1.50
2023-01-06T09:57:47.053Z,1.80
2023-01-06T10:00:22.544Z,1.40
2023-01-06T10:02:50.708Z,1.25
2023-01-06T10:05:20.692Z,1.25
2023-01-06T10:07:54.580Z,1.65
2023-01-06T10:10:29.639Z,1.55
2023-01-06T10:13:07.735Z,1.05
2023-01-06T10:15:43.195Z,1.08
2023-01-06T10:18:28.634Z,1.23
2023-01-06T10:21:05.949Z,1.52
2023-01-06T10:23:48.007Z,1.17
2023-01-06T10:26:21.640Z,1.30
2023-01-06T10:28:49.879Z,0.93
2023-01-06T10:31:19.237Z,1.10
2023-01-06T10:33:51.137Z,1.80
2023-01-06T10:36:20.922Z,1.58
2023-01-06T10:38:51.984Z,1.75
2023-01-06T10:41:26.944Z,0.70
2023-01-06T10:43:53.764Z,1.20
2023-01-06T10:46:20.624Z,1.10
2023-01-06T10:48:49.333Z,0.90
2023-01-06T10:51:37.632Z,0.73
2023-01-06T10:54:08.451Z,1.77
2023-01-06T10:56:37.525Z,0.50
2023-01-06T10:59:08.242Z,1.10
2023-01-06T11:01:36.814Z,1.48
2023-01-06T11:04:09.796Z,0.93
2023-01-06T11:06:38.663Z,1.00
2023-01-06T11:09:24.341Z,1.42
2023-01-06T11:11:53.460Z,1.30
2023-01-06T11:14:24.847Z,0.90
2023-01-06T11:16:58.212Z,0.70
2023-01-06T11:19:34.733Z,2.92
2023-01-06T11:22:01.504Z,1.00
2023-01-06T11:24:29.330Z,1.50
2023-01-06T11:26:58.587Z,0.90
2023-01-06T11:29:28.648Z,1.80
2023-01-06T11:31:56.264Z,1.80
2023-01-06T11:34:24.680Z,1.30
2023-01-06T11:36:53.255Z,1.88
2023-01-06T11:39:28.777Z,1.33
2023-01-06T11:41:57.480Z,1.50
2023-01-06T11:44:31.237Z,1.75
2023-01-06T11:47:00.412Z,1.40
2023-01-06T11:49:30.977Z,1.40
2023-01-06T11:52:04.030Z,1.30
2023-01-06T11:54:37.416Z,1.00
2023-01-06T11:57:21.856Z,1.00
2023-01-06T11:59:59.077Z,0.90
2023-01-06T12:02:32.943Z,1.40
2023-01-06T12:05:03.946Z,1.13
2023-01-06T12:07:38.534Z,0.70
2023-01-06T12:10:14.272Z,2.10
2023-01-06T12:12:41.100Z,0.77
2023-01-06T12:15:12.571Z,1.65
2023-01-06T12:17:43.911Z,0.70
2023-01-06T12:20:16.479Z,1.00
2023-01-06T12:22:48.624Z,0.80
2023-01-06T12:25:21.811Z,1.05
2023-01-06T12:27:51.910Z,0.90
2023-01-06T12:30:26.537Z,1.27
2023-01-06T12:32:56.633Z,0.50
2023-01-06T12:35:27.132Z,0.95
2023-01-06T12:37:58.805Z,0.82
2023-01-06T12:40:31.789Z,1.02
2023-01-06T12:43:11.405Z,1.55
2023-01-06T12:45:49.841Z,0.75
2023-01-06T12:48:31.135Z,1.40
2023-01-06T12:51:04.698Z,0.65
2023-01-06T12:53:40.113Z,0.75
2023-01-06T12:56:30.393Z,0.90
2023-01-06T12:59:06.603Z,0.80
2023-01-06T13:01:39.478Z,1.10
2023-01-06T13:04:44.862Z,0.85
2023-01-06T13:07:20.227Z,1.20
2023-01-06T13:09:59.280Z,1.00
2023-01-06T13:12:41.192Z,0.52
2023-01-06T13:15:16.239Z,0.60
2023-01-06T13:17:50.337Z,0.80
2023-01-06T13:20:23.650Z,1.13
2023-01-06T13:23:05.033Z,1.02
2023-01-06T13:25:46.604Z,1.08
2023-01-06T13:28:23.556Z,1.10
2023-01-06T13:31:09.683Z,0.85
2023-01-06T13:33:51.814Z,0.82
2023-01-06T13:36:45.522Z,0.80
2023-01-06T13:39:14.626Z,0.70
2023-01-06T13:41:45.527Z,1.80
2023-01-06T13:44:16.970Z,0.80
2023-01-06T13:46:44.795Z,0.38
2023-01-06T13:49:12.090Z,0.70
2023-01-06T13:51:41.252Z,0.90
2023-01-06T13:54:46.655Z,1.55
2023-01-06T13:57:31.593Z,0.70
2023-01-06T14:00:18.388Z,1.10
2023-01-06T14:03:14.501Z,0.90
2023-01-06T14:05:52.757Z,0.60
2023-01-06T14:08:20.783Z,0.93
2023-01-06T14:10:55.503Z,0.77
2023-01-06T14:13:26.467Z,0.70
2023-01-06T14:15:55.685Z,1.00
2023-01-06T14:18:38.555Z,1.00
2023-01-06T14:21:14.990Z,1.20
2023-01-06T14:23:50.875Z,0.60
2023-01-06T14:26:17.592Z,0.98
2023-01-06T14:28:45.690Z,0.80
2023-01-06T14:31:45.710Z,1.00
2023-01-06T14:34:17.607Z,1.00
2023-01-06T14:36:44.982Z,1.38
2023-01-06T14:39:20.742Z,1.50
2023-01-06T14:41:54.517Z,1.13
2023-01-06T14:44:30.076Z,1.02
2023-01-06T14:47:00.842Z,1.00
2023-01-06T14:49:32.765Z,1.10
2023-01-06T14:52:08.073Z,1.30
2023-01-06T14:54:38.932Z,0.90
2023-01-06T14:57:05.797Z,1.20
2023-01-06T14:59:33.890Z,0.90
2023-01-06T15:02:03.417Z,1.10
2023-01-06T15:04:32.849Z,1.27
2023-01-06T15:07:05.036Z,1.90
2023-01-06T15:09:32.219Z,1.85
2023-01-06T15:11:58.993Z,1.35
2023-01-06T15:14:28.188Z,1.23
2023-01-06T15:16:58.053Z,1.40
2023-01-06T15:19:25.189Z,1.60
2023-01-06T15:21:54.756Z,2.33
2023-01-06T15:24:24.062Z,1.80
2023-01-06T15:26:52.290Z,1.73
2023-01-06T15:29:21.146Z,2.10
2023-01-06T15:31:50.042Z,2.08
2023-01-06T15:34:20.680Z,2.08
2023-01-06T15:36:50.256Z,2.30
2023-01-06T15:39:25.032Z,1.98
2023-01-06T15:41:52.244Z,1.80
2023-01-06T15:44:27.969Z,2.70
2023-01-06T15:47:01.531Z,2.92
2023-01-06T15:49:32.953Z,1.90
2023-01-06T15:52:05.488Z,2.58
2023-01-06T15:54:34.725Z,3.05
2023-01-06T15:57:15.221Z,4.10
2023-01-06T15:59:53.066Z,3.40
2023-01-06T16:02:23.744Z,2.97
2023-01-06T16:04:51.967Z,4.63
2023-01-06T16:07:35.696Z,4.60
2023-01-06T16:10:05.632Z,4.65
2023-01-06T16:12:32.418Z,5.00
2023-01-06T16:15:19.219Z,4.53
2023-01-06T16:17:46.686Z,3.83
2023-01-06T16:20:23.566Z,5.30
2023-01-06T16:22:53.107Z,5.00
2023-01-06T16:25:24.663Z,5.15
2023-01-06T16:27:53.447Z,4.80
2023-01-06T16:30:23.973Z,5.30
2023-01-06T16:32:52.083Z,4.30
2023-01-06T16:35:23.406Z,4.68
2023-01-06T16:37:50.877Z,4.63
2023-01-06T16:40:21.091Z,4.78
2023-01-06T16:42:49.197Z,6.70
2023-01-06T16:45:24.418Z,11.07
2023-01-06T16:47:51.848Z,11.70
2023-01-06T16:50:25.540Z,11.40
2023-01-06T16:53:00.257Z,9.23
2023-01-06T16:55:27.468Z,7.18
2023-01-06T16:57:54.825Z,11.25
2023-01-06T17:00:23.199Z,6.85
2023-01-06T17:02:51.230Z,6.60
2023-01-06T17:05:29.678Z,6.67
2023-01-06T17:08:00.607Z,7.18
2023-01-06T17:10:27.526Z,7.95
2023-01-06T17:12:57.429Z,8.65
2023-01-06T17:15:24.184Z,10.90
2023-01-06T17:17:50.969Z,11.20
2023-01-06T17:20:17.939Z,10.32
2023-01-06T17:22:46.317Z,7.97
2023-01-06T17:25:14.298Z,8.55
2023-01-06T17:27:43.936Z,7.50
2023-01-06T17:30:17.161Z,8.85
2023-01-06T17:32:44.437Z,8.98
2023-01-06T17:35:21.100Z,7.68
2023-01-06T17:37:49.207Z,7.47
2023-01-06T17:40:19.095Z,8.13
2023-01-06T17:42:59.660Z,6.38
2023-01-06T17:45:28.660Z,5.85
2023-01-06T17:50:30.545Z,6.72
2023-01-06T17:53:12.171Z,7.22
2023-01-06T17:55:48.688Z,7.88
2023-01-06T17:58:16.839Z,9.02
2023-01-06T18:00:44.484Z,9.68
2023-01-06T18:03:17.515Z,10.85
2023-01-06T18:06:14.955Z,9.07
2023-01-06T18:08:43.044Z,12.57
2023-01-06T18:11:30.070Z,10.83
2023-01-06T18:14:17.212Z,12.65
2023-01-06T18:16:45.520Z,9.63
2023-01-06T18:19:28.739Z,9.88
2023-01-06T18:21:56.125Z,13.65
2023-01-06T18:24:29.423Z,10.32
2023-01-06T18:26:58.072Z,10.38
2023-01-06T18:29:29.184Z,11.02
2023-01-06T18:32:01.357Z,8.60
2023-01-06T18:34:36.775Z,8.23
2023-01-06T18:37:03.581Z,9.80
2023-01-06T18:39:39.037Z,10.45
2023-01-06T18:42:26.531Z,9.15
2023-01-06T18:45:01.519Z,9.73
2023-01-06T18:47:30.617Z,7.65
2023-01-06T18:50:01.982Z,8.50
2023-01-06T18:52:39.200Z,8.13
2023-01-06T18:55:21.362Z,7.32
2023-01-06T18:57:55.639Z,7.18
2023-01-06T19:00:34.008Z,7.93
2023-01-06T19:03:09.540Z,7.65
2023-01-06T19:05:36.768Z,8.23
2023-01-06T19:08:14.234Z,11.07
2023-01-06T19:10:44.579Z,10.07
2023-01-06T19:13:17.841Z,9.05
2023-01-06T19:15:44.833Z,9.30
2023-01-06T19:18:15.226Z,9.80
2023-01-06T19:20:42.065Z,9.38
2023-01-06T19:23:17.935Z,7.68
2023-01-06T19:25:47.134Z,7.88
2023-01-06T19:28:18.809Z,8.68
2023-01-06T19:30:49.488Z,7.40
2023-01-06T19:33:35.097Z,9.10
2023-01-06T19:36:49.849Z,8.13
2023-01-06T19:39:28.681Z,8.00
2023-01-06T19:42:00.509Z,7.72
2023-01-06T19:44:31.323Z,7.53
2023-01-06T19:47:03.365Z,5.55
2023-01-06T19:49:37.781Z,5.53
2023-01-06T19:52:24.428Z,6.22
2023-01-06T19:54:51.141Z,6.30
2023-01-06T19:57:24.766Z,5.82
2023-01-06T19:59:51.834Z,5.18
2023-01-06T20:02:28.061Z,3.83
2023-01-06T20:04:55.121Z,4.70
2023-01-06T20:07:21.903Z,3.70
2023-01-06T20:09:48.680Z,4.85
2023-01-06T20:12:15.636Z,4.50
2023-01-06T20:14:43.767Z,3.92
2023-01-06T20:17:12.985Z,5.33
2023-01-06T20:19:39.745Z,4.15
2023-01-06T20:22:06.465Z,5.70
2023-01-06T20:24:33.222Z,5.85
2023-01-06T20:26:59.976Z,5.90
2023-01-06T20:29:26.889Z,6.40
2023-01-06T20:31:55.019Z,6.53
2023-01-06T20:34:21.748Z,7.63
2023-01-06T20:36:48.494Z,6.00
2023-01-06T20:39:15.482Z,5.15
2023-01-06T20:41:42.196Z,6.82
2023-01-06T20:44:08.936Z,7.50
2023-01-06T20:46:35.698Z,8.35
2023-01-06T20:49:03.852Z,8.27
2023-01-06T20:51:30.588Z,8.07
2023-01-06T20:53:57.333Z,9.48
2023-01-06T20:56:24.082Z,10.20
2023-01-06T20:58:50.791Z,10.52
2023-01-06T21:01:17.674Z,10.77
2023-01-06T21:03:44.465Z,9.50
2023-01-06T21:06:12.556Z,11.52
2023-01-06T21:08:39.367Z,7.80
2023-01-06T21:11:06.129Z,10.38
2023-01-06T21:13:33.165Z,9.43
2023-01-06T21:15:59.872Z,11.90
2023-01-06T21:18:26.658Z,12.25
2023-01-06T21:20:53.379Z,12.90
2023-01-06T21:23:21.465Z,10.82
2023-01-06T21:25:49.235Z,11.05
2023-01-06T21:28:15.957Z,7.47
2023-01-06T21:30:42.802Z,10.18
2023-01-06T21:33:09.586Z,10.52
2023-01-06T21:35:36.316Z,10.27
2023-01-06T21:38:03.064Z,10.63
2023-01-06T21:40:31.419Z,9.95
2023-01-06T21:42:58.177Z,9.13
2023-01-06T21:45:25.474Z,8.27
2023-01-06T21:47:52.231Z,9.07
2023-01-06T21:50:19.081Z,9.82
2023-01-06T21:52:46.317Z,10.20
2023-01-06T21:55:13.188Z,8.90
2023-01-06T21:57:41.355Z,9.15
2023-01-06T22:00:09.357Z,7.90
2023-01-06T22:02:36.506Z,9.90
2023-01-06T22:05:05.058Z,8.73
2023-01-06T22:07:33.638Z,8.05
2023-01-06T22:10:02.912Z,8.45
2023-01-06T22:12:31.204Z,10.32
2023-01-06T22:14:59.558Z,9.32
2023-01-06T22:17:26.417Z,8.45
2023-01-06T22:19:54.538Z,5.75
2023-01-06T22:22:23.052Z,8.30
2023-01-06T22:24:53.417Z,8.60
2023-01-06T22:27:20.139Z,8.32
2023-01-06T22:29:46.896Z,7.35
2023-01-06T22:32:14.959Z,8.32
2023-01-06T22:34:42.727Z,8.60
2023-01-06T22:37:09.440Z,8.13
2023-01-06T22:39:36.134Z,8.60
2023-01-06T22:42:04.607Z,6.15
2023-01-06T22:44:31.315Z,9.73
2023-01-06T22:46:58.059Z,9.13
2023-01-06T22:49:26.234Z,8.93
2023-01-06T22:51:53.035Z,8.07
2023-01-06T22:54:19.794Z,7.38
2023-01-06T22:56:46.496Z,8.70
2023-01-06T22:59:13.423Z,7.78
2023-01-06T23:01:40.239Z,8.23
2023-01-06T23:04:07.137Z,7.68
2023-01-06T23:06:35.265Z,7.28
2023-01-06T23:09:02.062Z,9.00
2023-01-06T23:11:29.482Z,7.25
2023-01-06T23:13:57.534Z,9.55
2023-01-06T23:16:25.176Z,8.30
2023-01-06T23:18:52.383Z,7.60
2023-01-06T23:21:21.898Z,7.68
2023-01-06T23:23:51.277Z,8.55
2023-01-06T23:26:19.436Z,7.78
2023-01-06T23:28:46.457Z,8.18
2023-01-06T23:31:15.197Z,8.05
2023-01-06T23:33:43.892Z,7.85
2023-01-06T23:36:12.167Z,8.18
2023-01-06T23:38:39.607Z,6.65
2023-01-06T23:41:14.788Z,7.15
2023-01-06T23:43:42.067Z,7.03
2023-01-06T23:46:10.830Z,6.80
2023-01-06T23:48:38.109Z,7.72
2023-01-06T23:51:06.208Z,8.00
2023-01-06T23:53:33.846Z,7.50
2023-01-06T23:56:02.295Z,7.20
2023-01-06T23:58:32.412Z,7.35
